sensor_id;sensor_type;location;lat;lon;timestamp;pressure;altitude;pressure_sealevel;temperature;humidity
71457;BME280;59263;48.160;11.752;2023-05-08T00:00:27;96099.19;;;14.24;100.00
71457;BME280;59263;48.160;11.752;2023-05-08T00:02:52;96097.03;;;14.27;100.00
71457;BME280;59263;48.160;11.752;2023-05-08T00:05:18;96109.44;;;14.34;100.00
71457;BME280;59263;48.160;11.752;2023-05-08T00:07:43;96100.81;;;14.25;100.00
71457;BME280;59263;48.160;11.752;2023-05-08T00:10:09;96118.34;;;14.23;100.00
71457;BME280;59263;48.160;11.752;2023-05-08T00:12:35;96097.31;;;14.08;100.00
71457;BME280;59263;48.160;11.752;2023-05-08T00:15:02;96122.09;;;14.20;100.00
71457;BME280;59263;48.160;11.752;2023-05-08T00:17:28;96109.53;;;14.08;100.00
71457;BME280;59263;48.160;11.752;2023-05-08T00:19:53;96119.44;;;14.12;100.00
71457;BME280;59263;48.160;11.752;2023-05-08T00:22:18;96096.31;;;14.01;100.00
71457;BME280;59263;48.160;11.752;2023-05-08T00:24:44;96119.13;;;14.07;100.00
71457;BME280;59263;48.160;11.752;2023-05-08T00:27:09;96135.44;;;14.17;100.00
71457;BME280;59263;48.160;11.752;2023-05-08T00:29:35;96117.81;;;14.03;100.00
71457;BME280;59263;48.160;11.752;2023-05-08T00:32:00;96114.03;;;13.97;100.00
71457;BME280;59263;48.160;11.752;2023-05-08T00:34:26;96123.31;;;14.00;100.00
71457;BME280;59263;48.160;11.752;2023-05-08T00:36:52;96123.31;;;14.00;100.00
71457;BME280;59263;48.160;11.752;2023-05-08T00:39:18;96129.84;;;14.04;100.00
71457;BME280;59263;48.160;11.752;2023-05-08T00:41:43;96126.91;;;13.99;100.00
71457;BME280;59263;48.160;11.752;2023-05-08T00:44:08;96118.41;;;13.97;100.00
71457;BME280;59263;48.160;11.752;2023-05-08T00:46:34;96113.34;;;13.87;100.00
71457;BME280;59263;48.160;11.752;2023-05-08T00:49:00;96121.19;;;13.95;100.00
71457;BME280;59263;48.160;11.752;2023-05-08T00:51:26;96115.19;;;13.95;100.00
71457;BME280;59263;48.160;11.752;2023-05-08T00:53:52;96107.31;;;13.87;100.00
71457;BME280;59263;48.160;11.752;2023-05-08T00:56:19;96126.91;;;13.99;100.00
71457;BME280;59263;48.160;11.752;2023-05-08T00:58:45;96110.28;;;13.92;100.00
71457;BME280;59263;48.160;11.752;2023-05-08T01:01:12;96119.72;;;13.93;100.00
71457;BME280;59263;48.160;11.752;2023-05-08T01:03:38;96117.09;;;13.93;100.00
71457;BME280;59263;48.160;11.752;2023-05-08T01:06:04;96091.03;;;13.76;100.00
71457;BME280;59263;48.160;11.752;2023-05-08T01:08:30;96091.34;;;13.73;100.00
71457;BME280;59263;48.160;11.752;2023-05-08T01:16:43;96126.50;;;13.86;100.00
71457;BME280;59263;48.160;11.752;2023-05-08T01:22:01;96133.75;;;13.74;100.00
71457;BME280;59263;48.160;11.752;2023-05-08T01:24:48;96119.91;;;13.65;100.00
71457;BME280;59263;48.160;11.752;2023-05-08T01:27:39;96133.59;;;13.75;100.00
71457;BME280;59263;48.160;11.752;2023-05-08T01:32:59;96144.16;;;13.74;100.00
71457;BME280;59263;48.160;11.752;2023-05-08T01:35:29;96132.25;;;13.63;100.00
71457;BME280;59263;48.160;11.752;2023-05-08T01:38:02;96139.06;;;13.64;100.00
71457;BME280;59263;48.160;11.752;2023-05-08T01:40:39;96120.78;;;13.48;100.00
71457;BME280;59263;48.160;11.752;2023-05-08T01:43:27;96147.84;;;13.63;100.00
71457;BME280;59263;48.160;11.752;2023-05-08T01:45:55;96133.78;;;13.48;100.00
71457;BME280;59263;48.160;11.752;2023-05-08T01:48:30;96153.97;;;13.54;100.00
71457;BME280;59263;48.160;11.752;2023-05-08T01:51:02;96153.97;;;13.54;100.00
71457;BME280;59263;48.160;11.752;2023-05-08T01:53:29;96144.47;;;13.45;100.00
71457;BME280;59263;48.160;11.752;2023-05-08T01:56:03;96144.13;;;13.40;100.00
71457;BME280;59263;48.160;11.752;2023-05-08T01:58:30;96140.81;;;13.29;100.00
71457;BME280;59263;48.160;11.752;2023-05-08T02:00:58;96153.81;;;13.29;100.00
71457;BME280;59263;48.160;11.752;2023-05-08T02:03:26;96162.03;;;13.43;100.00
71457;BME280;59263;48.160;11.752;2023-05-08T02:05:54;96146.00;;;13.29;100.00
71457;BME280;59263;48.160;11.752;2023-05-08T02:08:21;96152.19;;;13.28;100.00
71457;BME280;59263;48.160;11.752;2023-05-08T02:10:49;96140.03;;;13.19;100.00
71457;BME280;59263;48.160;11.752;2023-05-08T02:13:17;96149.19;;;13.23;100.00
71457;BME280;59263;48.160;11.752;2023-05-08T02:15:46;96151.78;;;13.23;100.00
71457;BME280;59263;48.160;11.752;2023-05-08T02:18:13;96145.88;;;13.13;100.00
71457;BME280;59263;48.160;11.752;2023-05-08T02:20:40;96163.84;;;13.24;100.00
71457;BME280;59263;48.160;11.752;2023-05-08T02:23:06;96167.09;;;13.26;100.00
71457;BME280;59263;48.160;11.752;2023-05-08T02:25:33;96173.53;;;13.22;100.00
71457;BME280;59263;48.160;11.752;2023-05-08T02:28:00;96170.13;;;13.22;100.00
71457;BME280;59263;48.160;11.752;2023-05-08T02:30:26;96156.25;;;13.13;100.00
71457;BME280;59263;48.160;11.752;2023-05-08T02:32:54;96153.94;;;13.10;100.00
71457;BME280;59263;48.160;11.752;2023-05-08T02:35:22;96156.25;;;13.13;100.00
71457;BME280;59263;48.160;11.752;2023-05-08T02:37:51;96172.38;;;13.17;100.00
71457;BME280;59263;48.160;11.752;2023-05-08T02:40:19;96145.41;;;13.00;100.00
71457;BME280;59263;48.160;11.752;2023-05-08T02:42:46;96156.31;;;13.03;100.00
71457;BME280;59263;48.160;11.752;2023-05-08T02:45:12;96170.53;;;13.09;100.00
71457;BME280;59263;48.160;11.752;2023-05-08T02:50:15;96152.09;;;12.84;100.00
71457;BME280;59263;48.160;11.752;2023-05-08T02:52:51;96165.44;;;12.90;100.00
71457;BME280;59263;48.160;11.752;2023-05-08T02:55:41;96184.03;;;12.95;100.00
71457;BME280;59263;48.160;11.752;2023-05-08T02:58:17;96171.91;;;12.86;100.00
71457;BME280;59263;48.160;11.752;2023-05-08T03:00:48;96180.09;;;12.91;100.00
71457;BME280;59263;48.160;11.752;2023-05-08T03:03:21;96157.81;;;12.70;100.00
71457;BME280;59263;48.160;11.752;2023-05-08T03:05:53;96166.94;;;12.74;100.00
71457;BME280;59263;48.160;11.752;2023-05-08T03:08:25;96178.66;;;12.78;100.00
71457;BME280;59263;48.160;11.752;2023-05-08T03:10:54;96192.63;;;12.77;100.00
71457;BME280;59263;48.160;11.752;2023-05-08T03:13:22;96190.38;;;12.82;100.00
71457;BME280;59263;48.160;11.752;2023-05-08T03:15:53;96188.22;;;12.78;100.00
71457;BME280;59263;48.160;11.752;2023-05-08T03:18:21;96177.31;;;12.74;100.00
71457;BME280;59263;48.160;11.752;2023-05-08T03:20:51;96181.88;;;12.72;100.00
71457;BME280;59263;48.160;11.752;2023-05-08T03:23:19;96188.53;;;12.75;100.00
71457;BME280;59263;48.160;11.752;2023-05-08T03:25:45;96168.13;;;12.62;100.00
71457;BME280;59263;48.160;11.752;2023-05-08T03:28:12;96186.38;;;12.70;100.00
71457;BME280;59263;48.160;11.752;2023-05-08T03:30:39;96179.03;;;12.66;100.00
71457;BME280;59263;48.160;11.752;2023-05-08T03:33:06;96183.69;;;12.62;100.00
71457;BME280;59263;48.160;11.752;2023-05-08T03:35:34;96173.03;;;12.65;100.00
71457;BME280;59263;48.160;11.752;2023-05-08T03:38:00;96188.00;;;12.71;100.00
71457;BME280;59263;48.160;11.752;2023-05-08T03:40:26;96175.03;;;12.53;100.00
71457;BME280;59263;48.160;11.752;2023-05-08T03:42:52;96172.44;;;12.53;100.00
71457;BME280;59263;48.160;11.752;2023-05-08T03:45:18;96196.00;;;12.60;100.00
71457;BME280;59263;48.160;11.752;2023-05-08T03:47:44;96177.50;;;12.45;100.00
71457;BME280;59263;48.160;11.752;2023-05-08T03:50:10;96184.19;;;12.48;100.00
71457;BME280;59263;48.160;11.752;2023-05-08T03:52:37;96196.50;;;12.46;100.00
71457;BME280;59263;48.160;11.752;2023-05-08T03:55:02;96186.31;;;12.34;100.00
71457;BME280;59263;48.160;11.752;2023-05-08T03:57:34;96198.34;;;12.35;100.00
71457;BME280;59263;48.160;11.752;2023-05-08T04:00:13;96214.38;;;12.49;100.00
71457;BME280;59263;48.160;11.752;2023-05-08T04:02:51;96176.25;;;12.31;100.00
71457;BME280;59263;48.160;11.752;2023-05-08T04:05:25;96216.59;;;12.44;100.00
71457;BME280;59263;48.160;11.752;2023-05-08T04:08:08;96203.81;;;12.32;100.00
71457;BME280;59263;48.160;11.752;2023-05-08T04:10:49;96215.78;;;12.43;100.00
71457;BME280;59263;48.160;11.752;2023-05-08T04:13:24;96199.34;;;12.25;100.00
71457;BME280;59263;48.160;11.752;2023-05-08T04:15:54;96222.75;;;12.43;100.00
71457;BME280;59263;48.160;11.752;2023-05-08T04:18:27;96222.63;;;12.34;100.00
71457;BME280;59263;48.160;11.752;2023-05-08T04:20:55;96219.50;;;12.31;100.00
71457;BME280;59263;48.160;11.752;2023-05-08T04:23:22;96231.38;;;12.33;100.00
71457;BME280;59263;48.160;11.752;2023-05-08T04:25:50;96176.13;;;11.96;100.00
71457;BME280;59263;48.160;11.752;2023-05-08T04:28:17;96222.81;;;12.23;100.00
71457;BME280;59263;48.160;11.752;2023-05-08T04:30:43;96203.94;;;12.03;100.00
71457;BME280;59263;48.160;11.752;2023-05-08T04:33:09;96205.00;;;12.10;100.00
71457;BME280;59263;48.160;11.752;2023-05-08T04:35:35;96187.06;;;11.90;100.00
71457;BME280;59263;48.160;11.752;2023-05-08T04:38:01;96180.75;;;11.82;100.00
71457;BME280;59263;48.160;11.752;2023-05-08T04:40:26;96197.41;;;11.90;100.00
71457;BME280;59263;48.160;11.752;2023-05-08T04:42:52;96209.56;;;11.99;100.00
71457;BME280;59263;48.160;11.752;2023-05-08T04:45:17;96242.94;;;12.11;100.00
71457;BME280;59263;48.160;11.752;2023-05-08T04:47:42;96240.78;;;12.07;100.00
71457;BME280;59263;48.160;11.752;2023-05-08T04:50:08;96242.69;;;12.05;100.00
71457;BME280;59263;48.160;11.752;2023-05-08T04:52:34;96241.66;;;11.98;100.00
71457;BME280;59263;48.160;11.752;2023-05-08T04:54:59;96244.91;;;12.00;100.00
71457;BME280;59263;48.160;11.752;2023-05-08T04:57:24;96258.56;;;12.02;100.00
71457;BME280;59263;48.160;11.752;2023-05-08T04:59:50;96258.84;;;11.99;100.00
71457;BME280;59263;48.160;11.752;2023-05-08T05:02:15;96251.72;;;12.01;100.00
71457;BME280;59263;48.160;11.752;2023-05-08T05:04:41;96253.91;;;11.96;100.00
71457;BME280;59263;48.160;11.752;2023-05-08T05:07:06;96265.91;;;11.97;100.00
71457;BME280;59263;48.160;11.752;2023-05-08T05:09:31;96254.78;;;11.86;100.00
71457;BME280;59263;48.160;11.752;2023-05-08T05:12:04;96264.31;;;11.86;100.00
71457;BME280;59263;48.160;11.752;2023-05-08T05:14:30;96240.16;;;11.76;100.00
71457;BME280;59263;48.160;11.752;2023-05-08T05:16:55;96261.59;;;11.88;100.00
71457;BME280;59263;48.160;11.752;2023-05-08T05:19:20;96251.75;;;11.81;100.00
71457;BME280;59263;48.160;11.752;2023-05-08T05:21:46;96269.50;;;11.86;100.00
71457;BME280;59263;48.160;11.752;2023-05-08T05:24:11;96272.47;;;11.81;100.00
71457;BME280;59263;48.160;11.752;2023-05-08T05:26:36;96270.84;;;11.80;100.00
71457;BME280;59263;48.160;11.752;2023-05-08T05:29:02;96277.66;;;11.81;100.00
71457;BME280;59263;48.160;11.752;2023-05-08T05:31:27;96282.84;;;11.81;100.00
71457;BME280;59263;48.160;11.752;2023-05-08T05:33:53;96271.97;;;11.68;100.00
71457;BME280;59263;48.160;11.752;2023-05-08T05:36:19;96278.78;;;11.69;100.00
71457;BME280;59263;48.160;11.752;2023-05-08T05:38:44;96284.94;;;11.68;100.00
71457;BME280;59263;48.160;11.752;2023-05-08T05:41:10;96274.94;;;11.63;100.00
71457;BME280;59263;48.160;11.752;2023-05-08T05:43:35;96282.34;;;11.68;100.00
71457;BME280;59263;48.160;11.752;2023-05-08T05:46:07;96283.00;;;11.70;100.00
71457;BME280;59263;48.160;11.752;2023-05-08T05:48:33;96273.31;;;11.62;100.00
71457;BME280;59263;48.160;11.752;2023-05-08T05:50:59;96271.69;;;11.61;100.00
71457;BME280;59263;48.160;11.752;2023-05-08T05:53:24;96276.06;;;11.61;100.00
71457;BME280;59263;48.160;11.752;2023-05-08T05:55:49;96272.38;;;11.54;100.00
71457;BME280;59263;48.160;11.752;2023-05-08T05:58:15;96296.50;;;11.64;100.00
71457;BME280;59263;48.160;11.752;2023-05-08T06:00:41;96294.59;;;11.66;100.00
71457;BME280;59263;48.160;11.752;2023-05-08T06:03:06;96295.44;;;11.57;100.00
71457;BME280;59263;48.160;11.752;2023-05-08T06:05:32;96270.06;;;11.41;100.00
71457;BME280;59263;48.160;11.752;2023-05-08T06:07:57;96303.75;;;11.60;100.00
71457;BME280;59263;48.160;11.752;2023-05-08T06:10:23;96295.72;;;11.54;100.00
71457;BME280;59263;48.160;11.752;2023-05-08T06:12:48;96291.31;;;11.64;100.00
71457;BME280;59263;48.160;11.752;2023-05-08T06:15:14;96298.16;;;11.65;100.00
71457;BME280;59263;48.160;11.752;2023-05-08T06:17:40;96300.59;;;11.67;100.00
71457;BME280;59263;48.160;11.752;2023-05-08T06:20:06;96292.44;;;11.52;100.00
71457;BME280;59263;48.160;11.752;2023-05-08T06:22:32;96309.34;;;11.66;100.00
71457;BME280;59263;48.160;11.752;2023-05-08T06:24:58;96259.16;;;11.37;100.00
71457;BME280;59263;48.160;11.752;2023-05-08T06:27:24;96216.34;;;11.14;100.00
71457;BME280;59263;48.160;11.752;2023-05-08T06:29:50;96316.97;;;11.77;100.00
71457;BME280;59263;48.160;11.752;2023-05-08T06:32:20;96273.47;;;11.61;100.00
71457;BME280;59263;48.160;11.752;2023-05-08T06:34:46;96229.56;;;11.30;100.00
71457;BME280;59263;48.160;11.752;2023-05-08T06:37:11;96301.16;;;11.80;100.00
71457;BME280;59263;48.160;11.752;2023-05-08T06:39:37;96261.31;;;11.52;100.00
71457;BME280;59263;48.160;11.752;2023-05-08T06:42:02;96275.22;;;11.60;100.00
71457;BME280;59263;48.160;11.752;2023-05-08T06:44:31;96300.75;;;11.84;100.00
71457;BME280;59263;48.160;11.752;2023-05-08T06:46:56;96256.28;;;11.50;100.00
71457;BME280;59263;48.160;11.752;2023-05-08T06:49:22;96319.31;;;11.90;100.00
71457;BME280;59263;48.160;11.752;2023-05-08T06:51:47;96234.91;;;11.38;100.00
71457;BME280;59263;48.160;11.752;2023-05-08T06:54:13;96304.44;;;11.92;100.00
71457;BME280;59263;48.160;11.752;2023-05-08T06:56:38;96305.41;;;11.91;100.00
71457;BME280;59263;48.160;11.752;2023-05-08T06:59:05;96320.66;;;12.03;100.00
71457;BME280;59263;48.160;11.752;2023-05-08T07:01:34;96321.34;;;12.05;100.00
71457;BME280;59263;48.160;11.752;2023-05-08T07:04:02;96265.66;;;11.71;100.00
71457;BME280;59263;48.160;11.752;2023-05-08T07:09:02;96311.09;;;12.04;100.00
71457;BME280;59263;48.160;11.752;2023-05-08T07:11:28;96318.59;;;12.07;100.00
71457;BME280;59263;48.160;11.752;2023-05-08T07:13:53;96333.19;;;12.18;100.00
71457;BME280;59263;48.160;11.752;2023-05-08T07:16:18;96315.41;;;12.23;100.00
71457;BME280;59263;48.160;11.752;2023-05-08T07:18:43;96297.00;;;12.16;100.00
71457;BME280;59263;48.160;11.752;2023-05-08T07:21:19;96328.66;;;12.29;100.00
71457;BME280;59263;48.160;11.752;2023-05-08T07:23:45;96296.09;;;11.98;100.00
71457;BME280;59263;48.160;11.752;2023-05-08T07:26:16;96299.31;;;12.19;100.00
71457;BME280;59263;48.160;11.752;2023-05-08T07:28:42;96318.53;;;12.26;100.00
71457;BME280;59263;48.160;11.752;2023-05-08T07:31:07;96256.41;;;11.88;100.00
71457;BME280;59263;48.160;11.752;2023-05-08T07:33:33;96223.38;;;11.70;100.00
71457;BME280;59263;48.160;11.752;2023-05-08T07:36:00;96308.44;;;12.23;100.00
71457;BME280;59263;48.160;11.752;2023-05-08T07:38:25;96324.25;;;12.40;100.00
71457;BME280;59263;48.160;11.752;2023-05-08T07:40:51;96296.06;;;12.17;100.00
71457;BME280;59263;48.160;11.752;2023-05-08T07:43:20;96328.59;;;12.49;100.00
71457;BME280;59263;48.160;11.752;2023-05-08T07:45:46;96320.22;;;12.55;100.00
71457;BME280;59263;48.160;11.752;2023-05-08T07:48:11;96313.81;;;12.49;100.00
71457;BME280;59263;48.160;11.752;2023-05-08T07:50:37;96325.53;;;12.63;100.00
71457;BME280;59263;48.160;11.752;2023-05-08T07:53:02;96291.75;;;12.35;100.00
71457;BME280;59263;48.160;11.752;2023-05-08T07:55:28;96313.78;;;12.59;100.00
71457;BME280;59263;48.160;11.752;2023-05-08T07:57:53;96277.25;;;12.43;100.00
71457;BME280;59263;48.160;11.752;2023-05-08T08:00:19;96312.94;;;12.68;100.00
71457;BME280;59263;48.160;11.752;2023-05-08T08:05:37;96237.97;;;12.28;100.00
71457;BME280;59263;48.160;11.752;2023-05-08T08:08:35;96227.47;;;12.20;100.00
71457;BME280;59263;48.160;11.752;2023-05-08T08:11:01;96231.97;;;12.27;100.00
71457;BME280;59263;48.160;11.752;2023-05-08T08:13:26;96332.09;;;12.95;100.00
71457;BME280;59263;48.160;11.752;2023-05-08T08:15:56;96328.81;;;12.93;100.00
71457;BME280;59263;48.160;11.752;2023-05-08T08:18:24;96258.91;;;12.54;100.00
71457;BME280;59263;48.160;11.752;2023-05-08T08:20:57;96328.59;;;13.04;100.00
71457;BME280;59263;48.160;11.752;2023-05-08T08:23:23;96308.56;;;12.96;100.00
71457;BME280;59263;48.160;11.752;2023-05-08T08:25:49;96250.16;;;12.55;100.00
71457;BME280;59263;48.160;11.752;2023-05-08T08:28:18;96329.13;;;13.07;100.00
71457;BME280;59263;48.160;11.752;2023-05-08T08:30:47;96331.19;;;13.04;100.00
71457;BME280;59263;48.160;11.752;2023-05-08T08:33:13;96270.34;;;12.61;100.00
71457;BME280;59263;48.160;11.752;2023-05-08T08:35:44;96240.91;;;12.43;100.00
71457;BME280;59263;48.160;11.752;2023-05-08T08:38:10;96245.53;;;12.49;100.00
71457;BME280;59263;48.160;11.752;2023-05-08T08:40:42;96246.66;;;12.46;100.00
71457;BME280;59263;48.160;11.752;2023-05-08T08:43:09;96331.88;;;13.06;100.00
71457;BME280;59263;48.160;11.752;2023-05-08T08:45:36;96257.22;;;12.63;100.00
71457;BME280;59263;48.160;11.752;2023-05-08T08:48:02;96342.44;;;13.22;100.00
71457;BME280;59263;48.160;11.752;2023-05-08T08:53:20;96241.59;;;12.72;100.00
71457;BME280;59263;48.160;11.752;2023-05-08T08:55:49;96244.41;;;12.79;100.00
71457;BME280;59263;48.160;11.752;2023-05-08T08:58:30;96240.97;;;12.78;100.00
71457;BME280;59263;48.160;11.752;2023-05-08T09:00:59;96323.50;;;13.40;100.00
71457;BME280;59263;48.160;11.752;2023-05-08T09:03:26;96296.09;;;13.27;100.00
71457;BME280;59263;48.160;11.752;2023-05-08T09:05:58;96282.41;;;13.25;100.00
71457;BME280;59263;48.160;11.752;2023-05-08T09:08:27;96272.38;;;13.30;100.00
71457;BME280;59263;48.160;11.752;2023-05-08T09:13:30;96335.81;;;13.73;100.00
71457;BME280;59263;48.160;11.752;2023-05-08T09:15:57;96241.72;;;13.34;100.00
71457;BME280;59263;48.160;11.752;2023-05-08T09:18:23;96279.50;;;13.64;100.00
71457;BME280;59263;48.160;11.752;2023-05-08T09:20:49;96263.53;;;13.59;100.00
71457;BME280;59263;48.160;11.752;2023-05-08T09:23:17;96254.56;;;13.53;100.00
71457;BME280;59263;48.160;11.752;2023-05-08T09:25:45;96230.94;;;13.47;100.00
71457;BME280;59263;48.160;11.752;2023-05-08T09:31:07;96283.22;;;13.79;100.00
71457;BME280;59263;48.160;11.752;2023-05-08T09:33:42;96227.66;;;13.45;100.00
71457;BME280;59263;48.160;11.752;2023-05-08T09:36:24;96238.59;;;13.48;100.00
71457;BME280;59263;48.160;11.752;2023-05-08T09:38:52;96329.69;;;14.00;100.00
71457;BME280;59263;48.160;11.752;2023-05-08T09:41:18;96234.34;;;13.47;100.00
71457;BME280;59263;48.160;11.752;2023-05-08T09:43:59;96296.28;;;13.88;100.00
71457;BME280;59263;48.160;11.752;2023-05-08T09:46:25;96249.84;;;13.57;100.00
71457;BME280;59263;48.160;11.752;2023-05-08T09:48:53;96240.13;;;13.59;100.00
71457;BME280;59263;48.160;11.752;2023-05-08T09:51:19;96273.50;;;13.90;100.00
71457;BME280;59263;48.160;11.752;2023-05-08T09:53:45;96257.50;;;13.76;100.00
71457;BME280;59263;48.160;11.752;2023-05-08T09:56:11;96267.19;;;13.92;100.00
71457;BME280;59263;48.160;11.752;2023-05-08T09:58:40;96306.19;;;14.36;100.00
71457;BME280;59263;48.160;11.752;2023-05-08T10:01:31;96331.19;;;14.55;100.00
71457;BME280;59263;48.160;11.752;2023-05-08T10:03:57;96249.06;;;14.09;100.00
71457;BME280;59263;48.160;11.752;2023-05-08T10:06:23;96257.06;;;14.15;100.00
71457;BME280;59263;48.160;11.752;2023-05-08T10:11:24;96288.59;;;14.38;100.00
71457;BME280;59263;48.160;11.752;2023-05-08T10:13:50;96294.97;;;14.44;100.00
71457;BME280;59263;48.160;11.752;2023-05-08T10:16:17;96297.50;;;14.54;100.00
71457;BME280;59263;48.160;11.752;2023-05-08T10:18:49;96315.00;;;14.69;100.00
71457;BME280;59263;48.160;11.752;2023-05-08T10:21:16;96314.31;;;14.67;100.00
71457;BME280;59263;48.160;11.752;2023-05-08T10:23:43;96294.75;;;14.55;100.00
71457;BME280;59263;48.160;11.752;2023-05-08T10:26:13;96326.47;;;14.85;100.00
71457;BME280;59263;48.160;11.752;2023-05-08T10:28:49;96307.19;;;14.69;100.00
71457;BME280;59263;48.160;11.752;2023-05-08T10:31:20;96327.94;;;14.87;100.00
71457;BME280;59263;48.160;11.752;2023-05-08T10:33:49;96319.66;;;15.00;100.00
71457;BME280;59263;48.160;11.752;2023-05-08T10:36:15;96274.63;;;14.73;100.00
71457;BME280;59263;48.160;11.752;2023-05-08T10:38:42;96290.97;;;14.84;100.00
71457;BME280;59263;48.160;11.752;2023-05-08T10:41:09;96282.34;;;14.83;100.00
71457;BME280;59263;48.160;11.752;2023-05-08T10:43:35;96288.09;;;15.03;100.00
71457;BME280;59263;48.160;11.752;2023-05-08T10:46:24;96279.47;;;15.27;100.00
71457;BME280;59263;48.160;11.752;2023-05-08T10:51:54;96294.06;;;15.79;100.00
71457;BME280;59263;48.160;11.752;2023-05-08T10:54:33;96286.38;;;16.02;100.00
71457;BME280;59263;48.160;11.752;2023-05-08T10:57:07;96268.13;;;15.85;100.00
71457;BME280;59263;48.160;11.752;2023-05-08T10:59:36;96266.66;;;15.91;100.00
71457;BME280;59263;48.160;11.752;2023-05-08T11:02:03;96298.88;;;16.31;100.00
71457;BME280;59263;48.160;11.752;2023-05-08T11:04:30;96242.00;;;16.10;100.00
71457;BME280;59263;48.160;11.752;2023-05-08T11:06:55;96285.47;;;16.42;100.00
71457;BME280;59263;48.160;11.752;2023-05-08T11:09:28;96285.44;;;16.58;100.00
71457;BME280;59263;48.160;11.752;2023-05-08T11:14:26;96250.06;;;16.39;100.00
71457;BME280;59263;48.160;11.752;2023-05-08T11:19:22;96282.94;;;16.81;100.00
71457;BME280;59263;48.160;11.752;2023-05-08T11:22:23;96280.22;;;16.98;100.00
71457;BME280;59263;48.160;11.752;2023-05-08T11:25:01;96283.22;;;16.95;100.00
71457;BME280;59263;48.160;11.752;2023-05-08T11:38:19;96277.78;;;16.96;100.00
71457;BME280;59263;48.160;11.752;2023-05-08T11:40:53;96239.84;;;16.69;100.00
71457;BME280;59263;48.160;11.752;2023-05-08T11:46:07;96237.69;;;16.81;100.00
71457;BME280;59263;48.160;11.752;2023-05-08T11:48:37;96212.88;;;16.68;100.00
71457;BME280;59263;48.160;11.752;2023-05-08T11:51:03;96200.66;;;16.61;100.00
71457;BME280;59263;48.160;11.752;2023-05-08T11:53:29;96216.94;;;16.71;100.00
71457;BME280;59263;48.160;11.752;2023-05-08T11:55:55;96261.44;;;17.02;100.00
71457;BME280;59263;48.160;11.752;2023-05-08T11:58:21;96267.53;;;17.17;100.00
71457;BME280;59263;48.160;11.752;2023-05-08T12:00:47;96228.66;;;16.91;100.00
71457;BME280;59263;48.160;11.752;2023-05-08T12:03:15;96274.78;;;17.07;100.00
71457;BME280;59263;48.160;11.752;2023-05-08T12:05:41;96201.78;;;16.75;100.00
71457;BME280;59263;48.160;11.752;2023-05-08T12:08:11;96240.53;;;16.94;100.00
71457;BME280;59263;48.160;11.752;2023-05-08T12:15:49;96270.16;;;17.17;100.00
71457;BME280;59263;48.160;11.752;2023-05-08T12:18:15;96239.59;;;16.87;100.00
71457;BME280;59263;48.160;11.752;2023-05-08T12:20:41;96268.50;;;17.16;100.00
71457;BME280;59263;48.160;11.752;2023-05-08T12:23:07;96277.69;;;17.12;100.00
71457;BME280;59263;48.160;11.752;2023-05-08T12:25:36;96259.34;;;17.21;100.00
71457;BME280;59263;48.160;11.752;2023-05-08T12:28:02;96275.97;;;17.28;100.00
71457;BME280;59263;48.160;11.752;2023-05-08T12:30:27;96231.88;;;16.93;100.00
71457;BME280;59263;48.160;11.752;2023-05-08T12:32:53;96201.09;;;16.81;100.00
71457;BME280;59263;48.160;11.752;2023-05-08T12:35:19;96216.03;;;16.95;100.00
71457;BME280;59263;48.160;11.752;2023-05-08T12:37:44;96225.78;;;17.01;100.00
71457;BME280;59263;48.160;11.752;2023-05-08T12:40:33;96256.22;;;17.25;100.00
71457;BME280;59263;48.160;11.752;2023-05-08T12:43:00;96197.16;;;16.85;100.00
71457;BME280;59263;48.160;11.752;2023-05-08T12:45:29;96244.69;;;17.11;100.00
71457;BME280;59263;48.160;11.752;2023-05-08T12:48:02;96234.56;;;17.08;100.00
71457;BME280;59263;48.160;11.752;2023-05-08T12:50:28;96224.22;;;16.92;100.00
71457;BME280;59263;48.160;11.752;2023-05-08T12:53:04;96208.94;;;16.81;100.00
71457;BME280;59263;48.160;11.752;2023-05-08T12:55:32;96267.84;;;17.23;100.00
71457;BME280;59263;48.160;11.752;2023-05-08T13:00:24;96227.25;;;17.04;100.00
71457;BME280;59263;48.160;11.752;2023-05-08T13:02:51;96247.19;;;17.28;100.00
71457;BME280;59263;48.160;11.752;2023-05-08T13:05:21;96250.06;;;17.41;100.00
71457;BME280;59263;48.160;11.752;2023-05-08T13:07:51;96263.78;;;17.43;100.00
71457;BME280;59263;48.160;11.752;2023-05-08T13:10:17;96262.47;;;17.39;100.00
71457;BME280;59263;48.160;11.752;2023-05-08T13:12:45;96242.78;;;17.28;100.00
71457;BME280;59263;48.160;11.752;2023-05-08T13:15:10;96229.34;;;17.08;100.00
71457;BME280;59263;48.160;11.752;2023-05-08T13:17:36;96245.28;;;17.22;100.00
71457;BME280;59263;48.160;11.752;2023-05-08T13:20:02;96264.00;;;17.33;100.00
71457;BME280;59263;48.160;11.752;2023-05-08T13:22:28;96259.47;;;17.27;100.00
71457;BME280;59263;48.160;11.752;2023-05-08T13:24:53;96262.66;;;17.37;100.00
71457;BME280;59263;48.160;11.752;2023-05-08T13:27:19;96268.56;;;17.39;100.00
71457;BME280;59263;48.160;11.752;2023-05-08T13:29:44;96259.94;;;17.31;100.00
71457;BME280;59263;48.160;11.752;2023-05-08T13:32:10;96205.97;;;16.84;100.00
71457;BME280;59263;48.160;11.752;2023-05-08T13:34:35;96212.16;;;16.91;100.00
71457;BME280;59263;48.160;11.752;2023-05-08T13:37:01;96254.34;;;17.11;100.00
71457;BME280;59263;48.160;11.752;2023-05-08T13:39:26;96265.00;;;17.09;100.00
71457;BME280;59263;48.160;11.752;2023-05-08T13:41:51;96222.34;;;16.78;100.00
71457;BME280;59263;48.160;11.752;2023-05-08T13:44:17;96230.19;;;16.78;100.00